Warning: Javascript must be enabled to use all the features on this page!


Page Loading - Please Wait...

Click to hideNews Bulletins

Peak Streamflow for the Nation

USGS 11180900 CROW C NR HAYWARD CA

Alameda County, California
Hydrologic Unit Code 18050004
Latitude  37°42'18", Longitude 122°02'34" NAD27
Drainage area 10.5  square miles
Gage datum 256.02 feet above NAVD88
Output formats
Table
Graph
Tab-separated file
peakfq (watstore) format
Reselect output format
Water
Year
Date Gage
Height
(feet)
Stream-
flow
(cfs)
1998 1998-02-03 13.07 1,990
1999 1999-02-07 8.90 783
2000 2000-02-13 10.97 1,320
2001 2001-01-25 4.87 92.0
2002 2001-12-30 6.24 280
2003 2002-12-16 12.21 1,700
2004 2004-02-25 10.39 1,210
2005 2005-03-23 7.65 552
2006 2005-12-31 12.07 1,660
2007 2007-02-26 6.50 287
2008 2008-02-03 8.08 597
2009 2009-03-03 6.08 222
2010 2010-01-20 9.87 1,030
2011 2011-03-24 10.61 1,230
2012 2012-04-13 8.63 723
2013 2012-12-02 10.34 1,150
2014 2014-04-01 4.90 73.0
2015 2014-12-11 6.58 308
2016 2016-03-05 7.94 547
2017 2017-01-10 11.31 1,650
2018 2018-04-07 7.12 515
2019 2019-01-16 10.46 1,400
2020 2019-11-26 6.09 175
2021 2021-01-28 6.14 190